Time;durP1;ratioP1;P1;durP2;ratioP2;P2;SDS_P1;SDS_P2;PMS_P1;PMS_P2;Temp;Humidity;BMP_temperature;BMP_pressure;BME280_temperature;BME280_humidity;BME280_pressure;Samples;Min_cycle;Max_cycle;Signal;HPM_P1;HPM_P2
2022/01/16 00:05:05;;;;;;;76.67;17.50;;;;;;;-0.56;100.00;95223.44;5090163;28;20233;-73
2022/01/16 00:07:53;;;;;;;48.77;18.43;;;;;;;-0.42;100.00;95189.34;5076161;28;20216;-76
2022/01/16 00:10:41;;;;;;;46.53;17.67;;;;;;;-0.60;100.00;95225.31;5079276;28;20216;-75
2022/01/16 00:13:28;;;;;;;40.43;17.47;;;;;;;-0.52;100.00;95221.50;5093105;28;20189;-75
2022/01/16 00:16:16;;;;;;;65.10;17.50;;;;;;;-0.40;100.00;95219.25;5089940;28;20221;-74
2022/01/16 00:19:02;;;;;;;83.40;17.17;;;;;;;-0.38;100.00;95213.50;5091765;28;20197;-75
2022/01/16 00:21:48;;;;;;;48.93;18.57;;;;;;;-0.26;100.00;95205.13;5063598;28;20287;-74
2022/01/16 00:24:34;;;;;;;77.47;17.47;;;;;;;-0.28;100.00;95210.09;5089196;28;20212;-74
2022/01/16 00:27:20;;;;;;;105.67;21.27;;;;;;;-0.54;100.00;95172.84;5089400;28;20208;-74
2022/01/16 00:30:07;;;;;;;60.40;19.43;;;;;;;-0.50;100.00;95152.16;5091940;28;20613;-77
2022/01/16 00:32:59;;;;;;;57.17;17.87;;;;;;;-0.44;100.00;95180.91;5088622;28;20759;-76
2022/01/16 00:35:45;;;;;;;126.33;18.60;;;;;;;-0.38;100.00;95202.78;5087564;28;20221;-75
2022/01/16 00:38:31;;;;;;;57.33;17.57;;;;;;;-0.63;100.00;95194.66;5076444;28;20254;-73
2022/01/16 00:41:19;;;;;;;56.03;17.47;;;;;;;-0.50;100.00;95205.81;5091040;28;20226;-75
2022/01/16 00:44:05;;;;;;;58.67;16.63;;;;;;;-0.74;100.00;95199.22;5090099;28;20276;-75
2022/01/16 00:46:51;;;;;;;58.13;15.07;;;;;;;-0.83;100.00;95196.09;5087126;28;20220;-75
2022/01/16 00:49:39;;;;;;;31.13;14.93;;;;;;;-0.61;100.00;95170.16;5091301;28;20258;-75
2022/01/16 00:52:25;;;;;;;58.53;13.70;;;;;;;-0.72;100.00;95188.13;5073885;28;20205;-75
2022/01/16 00:55:11;;;;;;;69.73;14.40;;;;;;;-0.72;100.00;95202.28;5074526;28;20209;-76
2022/01/16 00:57:57;;;;;;;30.00;14.87;;;;;;;-0.58;100.00;95199.66;5073611;28;20554;-74
2022/01/16 01:00:43;;;;;;;79.40;16.90;;;;;;;-0.67;100.00;95195.78;5086998;28;20582;-76
2022/01/16 01:03:30;;;;;;;43.47;15.30;;;;;;;-0.78;100.00;95206.47;5085988;28;20207;-74
2022/01/16 01:06:16;;;;;;;63.40;15.67;;;;;;;-0.54;100.00;95227.25;5088503;28;20233;-75
2022/01/16 01:09:02;;;;;;;98.47;14.37;;;;;;;-0.81;100.00;95244.75;5073200;28;20201;-74
2022/01/16 01:11:50;;;;;;;56.07;15.63;;;;;;;-0.80;100.00;95221.41;5086316;28;20233;-74
2022/01/16 01:14:42;;;;;;;30.57;14.67;;;;;;;-0.68;100.00;95224.50;5071253;28;20201;-75
2022/01/16 01:17:34;;;;;;;49.87;15.90;;;;;;;-0.80;100.00;95170.47;5086634;28;20525;-74
2022/01/16 01:20:23;;;;;;;39.77;15.87;;;;;;;-0.60;100.00;95140.28;5089016;28;20193;-75
2022/01/16 01:23:10;;;;;;;34.43;16.93;;;;;;;-0.70;100.00;95135.66;5082118;28;20202;-76
2022/01/16 01:25:57;;;;;;;40.20;14.60;;;;;;;-0.85;100.00;95141.34;5084044;28;20233;-75
2022/01/16 01:28:44;;;;;;;71.23;15.67;;;;;;;-1.03;100.00;95138.59;5072752;28;21520;-75
2022/01/16 01:31:31;;;;;;;68.67;15.80;;;;;;;-1.05;100.00;95156.97;5088206;28;20197;-78
2022/01/16 01:34:17;;;;;;;163.67;21.03;;;;;;;-1.11;100.00;95160.38;5072830;28;20197;-76
2022/01/16 01:37:06;;;;;;;78.47;15.93;;;;;;;-1.03;100.00;95196.78;5075287;28;20197;-75
2022/01/16 01:39:52;;;;;;;100.67;16.33;;;;;;;-1.06;100.00;95208.25;5087332;28;20533;-74
2022/01/16 01:42:50;;;;;;;104.90;17.60;;;;;;;-1.14;100.00;95204.78;5087380;28;20193;-75
2022/01/16 01:51:54;;;;;;;160.60;18.47;;;;;;;-1.37;100.00;95188.97;5087979;28;20193;-76
2022/01/16 01:54:40;;;;;;;101.43;14.27;;;;;;;-1.32;100.00;95177.88;5071685;28;20277;-73
2022/01/16 01:57:26;;;;;;;222.57;22.77;;;;;;;-1.42;100.00;95202.69;5087981;28;20189;-75
2022/01/16 02:00:17;;;;;;;94.43;15.27;;;;;;;-1.44;100.00;95204.97;5072455;28;20204;-73
2022/01/16 02:05:49;;;;;;;137.77;17.87;;;;;;;-1.68;100.00;95234.28;5073278;28;20224;-75
2022/01/16 02:08:36;;;;;;;107.87;16.57;;;;;;;-1.62;100.00;95228.19;5058389;28;20193;-75
2022/01/16 02:11:27;;;;;;;178.50;20.63;;;;;;;-1.68;100.00;95228.91;5082133;28;20330;-75
2022/01/16 02:14:28;;;;;;;29.53;11.93;;;;;;;-1.70;100.00;95234.66;5087451;28;20280;-74
2022/01/16 02:35:29;;;;;;;88.27;17.70;;;;;;;-1.53;100.00;95203.78;5079918;28;20216;-74
2022/01/16 02:38:15;;;;;;;42.73;14.70;;;;;;;-1.52;100.00;95199.94;5086329;28;20193;-74
2022/01/16 02:41:04;;;;;;;43.23;14.60;;;;;;;-1.48;100.00;95182.75;5077609;28;20224;-73
2022/01/16 02:43:51;;;;;;;44.47;15.00;;;;;;;-1.53;100.00;95180.44;5079454;28;20193;-75
2022/01/16 02:46:37;;;;;;;64.77;16.50;;;;;;;-1.62;100.00;95173.88;5075662;28;20236;-73
2022/01/16 02:49:32;;;;;;;53.87;15.63;;;;;;;-1.69;100.00;95179.94;5078050;28;20224;-74
2022/01/16 02:52:20;;;;;;;67.50;15.93;;;;;;;-1.69;100.00;95185.31;5089537;28;20208;-74
2022/01/16 02:55:07;;;;;;;50.47;15.43;;;;;;;-1.64;100.00;95168.88;5088899;28;20386;-74
2022/01/16 02:57:54;;;;;;;68.17;15.23;;;;;;;-1.86;100.00;95171.78;5073880;28;20209;-76
2022/01/16 03:00:40;;;;;;;54.53;16.50;;;;;;;-1.73;100.00;95173.03;5064302;28;20204;-73
2022/01/16 03:03:26;;;;;;;96.57;14.93;;;;;;;-1.77;100.00;95164.22;5076825;28;20209;-75
2022/01/16 03:06:13;;;;;;;87.63;20.90;;;;;;;-1.55;100.00;95165.88;5076788;28;20229;-74
2022/01/16 03:09:00;;;;;;;40.67;14.53;;;;;;;-1.48;100.00;95153.28;5089357;28;20243;-76
2022/01/16 03:11:47;;;;;;;34.17;15.03;;;;;;;-1.67;100.00;95145.53;5093145;28;20224;-76
2022/01/16 03:14:34;;;;;;;46.17;14.53;;;;;;;-1.79;100.00;95137.81;5062121;28;20205;-75
2022/01/16 03:17:37;;;;;;;36.23;13.47;;;;;;;-1.76;100.00;95139.75;5088100;28;22210;-73
2022/01/16 03:23:28;;;;;;;68.60;14.60;;;;;;;-1.76;100.00;95141.63;5081235;28;20235;-76
2022/01/16 03:26:14;;;;;;;36.60;14.50;;;;;;;-1.63;100.00;95142.91;5060867;28;20217;-75
2022/01/16 03:29:00;;;;;;;65.40;14.57;;;;;;;-1.74;100.00;95144.72;5074341;28;20669;-75
2022/01/16 03:31:49;;;;;;;35.43;14.20;;;;;;;-1.60;100.00;95134.88;5091000;28;20606;-74
2022/01/16 03:34:35;;;;;;;39.43;14.27;;;;;;;-1.51;100.00;95129.19;5074074;28;20712;-75
2022/01/16 03:37:21;;;;;;;30.67;14.03;;;;;;;-1.68;100.00;95127.19;5079317;28;20197;-75
2022/01/16 03:40:11;;;;;;;26.87;13.80;;;;;;;-1.69;100.00;95134.44;5074586;28;20204;-74
2022/01/16 03:43:11;;;;;;;27.83;14.07;;;;;;;-1.79;100.00;95123.66;5091162;28;20926;-75
2022/01/16 03:45:57;;;;;;;37.67;14.97;;;;;;;-1.76;100.00;95126.34;5089838;28;20295;-75
2022/01/16 03:48:43;;;;;;;68.30;16.13;;;;;;;-1.89;100.00;95127.81;5088505;28;20205;-75
2022/01/16 03:51:29;;;;;;;62.40;15.27;;;;;;;-1.87;100.00;95130.88;5089830;28;20199;-75
2022/01/16 03:54:17;;;;;;;82.53;14.73;;;;;;;-1.73;100.00;95132.88;5082870;28;20744;-75
2022/01/16 03:57:04;;;;;;;45.73;15.47;;;;;;;-1.69;100.00;95150.50;5090456;28;20193;-74
2022/01/16 03:59:50;;;;;;;34.67;15.63;;;;;;;-1.67;100.00;95126.81;5087437;28;20205;-76
2022/01/16 04:02:36;;;;;;;29.70;15.87;;;;;;;-1.37;100.00;95153.34;5087977;28;20260;-74
2022/01/16 04:05:22;;;;;;;24.13;15.90;;;;;;;-1.53;100.00;95145.63;5076501;28;20233;-75
2022/01/16 04:08:07;;;;;;;19.90;14.47;;;;;;;-1.57;100.00;95139.50;5060159;28;20201;-75
2022/01/16 04:10:53;;;;;;;23.27;16.10;;;;;;;-1.45;100.00;95133.81;5072883;28;20197;-75
2022/01/16 04:13:48;;;;;;;21.97;15.07;;;;;;;-1.23;100.00;95143.50;5079561;28;20193;-76
2022/01/16 04:16:35;;;;;;;22.80;14.80;;;;;;;-1.15;100.00;95144.28;5072628;28;20304;-76
2022/01/16 04:19:21;;;;;;;31.27;14.87;;;;;;;-1.48;100.00;95137.22;5076845;28;20192;-75
2022/01/16 04:22:07;;;;;;;22.83;14.00;;;;;;;-1.41;100.00;95152.59;5086158;28;20208;-74
2022/01/16 04:24:53;;;;;;;21.27;15.00;;;;;;;-1.52;100.00;95155.19;5087836;28;20300;-76
2022/01/16 04:27:40;;;;;;;28.83;13.70;;;;;;;-1.66;100.00;95151.66;5089324;28;20193;-75
2022/01/16 04:30:26;;;;;;;112.43;17.67;;;;;;;-1.97;100.00;95147.59;5088307;28;20603;-73
2022/01/16 04:33:12;;;;;;;52.10;12.07;;;;;;;-2.16;100.00;95158.56;5075687;28;20204;-73
2022/01/16 04:35:58;;;;;;;65.17;13.00;;;;;;;-2.36;100.00;95143.88;5083103;28;20263;-74
2022/01/16 04:38:49;;;;;;;25.07;11.00;;;;;;;-2.38;100.00;95166.75;5086039;28;20201;-74
2022/01/16 04:44:39;;;;;;;16.80;12.00;;;;;;;-2.03;100.00;95167.06;5076398;28;20216;-75
2022/01/16 04:47:25;;;;;;;19.20;12.47;;;;;;;-2.06;100.00;95160.56;5081403;28;20209;-73
2022/01/16 04:50:13;;;;;;;18.27;13.43;;;;;;;-2.09;100.00;95161.31;5089332;28;20284;-76
2022/01/16 04:52:59;;;;;;;16.83;12.40;;;;;;;-2.00;100.00;95163.66;5071481;28;20207;-74
2022/01/16 04:55:47;;;;;;;17.67;13.20;;;;;;;-1.98;100.00;95162.13;5087435;28;20640;-74
2022/01/16 04:58:34;;;;;;;15.17;11.63;;;;;;;-1.70;100.00;95154.34;5071098;28;20215;-76
2022/01/16 05:01:20;;;;;;;14.97;11.00;;;;;;;-1.92;100.00;95160.66;5074729;28;21063;-75
2022/01/16 05:04:05;;;;;;;15.67;11.83;;;;;;;-2.10;100.00;95150.94;5086046;27;20201;-75
2022/01/16 05:06:52;;;;;;;17.67;11.53;;;;;;;-2.06;100.00;95168.59;5073612;28;20412;-75
2022/01/16 05:09:38;;;;;;;14.97;11.50;;;;;;;-2.07;100.00;95163.59;5083351;28;20201;-75
2022/01/16 05:12:33;;;;;;;17.73;12.77;;;;;;;-1.98;100.00;95170.16;5082750;28;20273;-74
2022/01/16 05:18:23;;;;;;;14.70;11.67;;;;;;;-1.77;100.00;95175.69;5081988;28;20205;-74
2022/01/16 05:21:10;;;;;;;15.10;12.07;;;;;;;-1.87;100.00;95163.00;5089499;28;20197;-76
2022/01/16 05:23:56;;;;;;;14.87;12.03;;;;;;;-1.88;100.00;95172.16;5086040;28;20584;-74
2022/01/16 05:26:44;;;;;;;17.30;12.57;;;;;;;-1.86;100.00;95183.25;5073225;28;20225;-77
2022/01/16 05:29:30;;;;;;;15.57;12.20;;;;;;;-1.84;100.00;95186.34;5082943;28;20243;-76
2022/01/16 05:32:16;;;;;;;18.10;13.07;;;;;;;-1.87;100.00;95172.94;5059104;28;20201;-75
2022/01/16 05:35:03;;;;;;;19.07;13.13;;;;;;;-1.90;100.00;95181.72;5056580;28;20227;-73
2022/01/16 05:37:49;;;;;;;18.10;12.93;;;;;;;-2.02;100.00;95180.06;5073084;28;20275;-73
2022/01/16 05:40:35;;;;;;;20.67;12.97;;;;;;;-2.10;100.00;95188.41;5084273;28;20199;-74
2022/01/16 05:43:21;;;;;;;21.43;12.60;;;;;;;-2.18;100.00;95187.59;5082330;28;20328;-74
2022/01/16 05:46:07;;;;;;;20.17;12.67;;;;;;;-1.98;100.00;95178.19;5081771;28;20313;-74
2022/01/16 05:48:53;;;;;;;24.97;12.83;;;;;;;-2.17;100.00;95191.03;5087766;28;20239;-76
2022/01/16 05:51:39;;;;;;;20.00;13.07;;;;;;;-2.11;100.00;95186.88;5069951;28;20209;-76
2022/01/16 05:54:24;;;;;;;16.93;12.03;;;;;;;-2.04;100.00;95185.03;5071365;28;20198;-75
2022/01/16 05:57:12;;;;;;;17.27;12.40;;;;;;;-2.09;100.00;95188.06;5071942;28;20262;-74
2022/01/16 05:59:58;;;;;;;20.63;11.10;;;;;;;-2.24;100.00;95201.66;5059911;28;20200;-75
2022/01/16 06:02:44;;;;;;;21.77;12.10;;;;;;;-2.26;100.00;95203.94;5088785;28;20720;-73
2022/01/16 06:05:30;;;;;;;18.53;10.77;;;;;;;-2.34;100.00;95194.31;5089839;28;20311;-73
2022/01/16 06:08:16;;;;;;;19.13;11.13;;;;;;;-2.59;100.00;95192.16;5090253;28;20192;-74
2022/01/16 06:11:02;;;;;;;19.37;11.23;;;;;;;-2.61;100.00;95202.44;5086064;28;20277;-77
2022/01/16 06:13:48;;;;;;;16.43;12.10;;;;;;;-2.40;100.00;95204.56;5092085;28;20301;-74
2022/01/16 06:16:35;;;;;;;14.47;11.10;;;;;;;-2.45;100.00;95215.59;5089827;28;20217;-74
2022/01/16 06:19:21;;;;;;;12.53;10.23;;;;;;;-2.58;100.00;95209.72;5091030;28;20617;-73
2022/01/16 06:22:07;;;;;;;14.57;10.30;;;;;;;-2.76;100.00;95205.31;5090758;28;20204;-74
2022/01/16 06:24:53;;;;;;;13.57;10.70;;;;;;;-2.62;100.00;95211.59;5090805;28;20224;-73
2022/01/16 06:27:40;;;;;;;15.93;11.37;;;;;;;-2.51;100.00;95211.69;5078962;28;20284;-74
2022/01/16 06:30:28;;;;;;;12.83;10.33;;;;;;;-2.71;100.00;95216.44;5083407;28;20231;-73
2022/01/16 06:33:14;;;;;;;12.87;10.67;;;;;;;-2.71;100.00;95229.03;5060848;28;20277;-73
2022/01/16 06:36:01;;;;;;;12.77;10.53;;;;;;;-2.69;100.00;95216.09;5090227;28;20212;-75
2022/01/16 06:38:47;;;;;;;15.63;10.50;;;;;;;-2.67;100.00;95232.53;5090403;28;20234;-73
2022/01/16 06:41:34;;;;;;;13.30;10.83;;;;;;;-2.67;100.00;95227.97;5085767;28;20674;-75
2022/01/16 06:44:20;;;;;;;13.20;10.30;;;;;;;-2.52;100.00;95218.97;5058996;28;20254;-74
2022/01/16 06:47:06;;;;;;;11.80;9.43;;;;;;;-2.58;100.00;95235.69;5074435;28;20197;-74
2022/01/16 06:49:52;;;;;;;11.83;9.80;;;;;;;-2.64;100.00;95235.25;5089784;28;20196;-74
2022/01/16 06:52:38;;;;;;;13.07;10.10;;;;;;;-2.63;100.00;95228.75;5090995;28;20205;-74
2022/01/16 06:55:23;;;;;;;11.97;9.53;;;;;;;-2.54;100.00;95221.22;5088657;28;20217;-74
2022/01/16 06:58:09;;;;;;;12.53;9.63;;;;;;;-2.71;100.00;95221.00;5088631;28;20201;-74
2022/01/16 07:00:55;;;;;;;13.47;10.63;;;;;;;-2.38;100.00;95239.72;5059471;28;20200;-74
2022/01/16 07:03:41;;;;;;;11.63;9.53;;;;;;;-2.39;100.00;95248.88;5071788;28;20224;-75
2022/01/16 07:06:27;;;;;;;14.07;9.93;;;;;;;-2.59;100.00;95248.28;5074293;28;20776;-73
2022/01/16 07:09:13;;;;;;;14.73;10.80;;;;;;;-2.44;100.00;95249.19;5063614;28;20209;-75
2022/01/16 07:12:02;;;;;;;13.20;10.10;;;;;;;-2.43;100.00;95249.97;5090273;28;20197;-75
2022/01/16 07:14:48;;;;;;;13.33;10.17;;;;;;;-2.57;100.00;95248.69;5088492;28;20199;-75
2022/01/16 07:17:34;;;;;;;12.97;9.97;;;;;;;-2.47;100.00;95249.94;5088414;28;20193;-72
2022/01/16 07:20:20;;;;;;;18.57;10.50;;;;;;;-2.58;100.00;95231.09;5088834;28;20208;-73
2022/01/16 07:23:06;;;;;;;17.47;9.90;;;;;;;-2.73;100.00;95239.31;5086807;28;20217;-75
2022/01/16 07:25:52;;;;;;;15.37;10.57;;;;;;;-2.87;100.00;95255.94;5073830;28;20220;-76
2022/01/16 07:28:38;;;;;;;13.63;10.23;;;;;;;-2.76;100.00;95253.41;5086983;28;20596;-73
2022/01/16 07:31:24;;;;;;;16.10;10.50;;;;;;;-2.77;100.00;95255.34;5071895;28;20193;-74
2022/01/16 07:34:10;;;;;;;14.53;10.83;;;;;;;-2.76;100.00;95248.84;5086799;28;20242;-74
2022/01/16 07:36:59;;;;;;;15.73;11.33;;;;;;;-2.65;100.00;95257.00;5073798;28;20225;-73
2022/01/16 07:39:45;;;;;;;13.90;10.23;;;;;;;-2.75;100.00;95257.63;5086383;28;20752;-74
2022/01/16 07:42:32;;;;;;;16.37;10.23;;;;;;;-2.79;100.00;95257.59;5094148;28;20209;-73
2022/01/16 07:45:19;;;;;;;13.57;10.27;;;;;;;-2.81;100.00;95262.53;5089832;28;20333;-73
2022/01/16 07:48:08;;;;;;;14.47;11.03;;;;;;;-2.66;100.00;95282.16;5076840;28;20220;-74
2022/01/16 07:50:54;;;;;;;15.10;10.63;;;;;;;-2.67;100.00;95276.06;5089957;28;20194;-75
2022/01/16 07:53:40;;;;;;;13.80;10.40;;;;;;;-2.71;100.00;95271.81;5088278;28;20197;-74
2022/01/16 07:56:26;;;;;;;19.83;11.13;;;;;;;-2.44;100.00;95278.63;5084896;28;20754;-73
2022/01/16 07:59:16;;;;;;;16.03;11.30;;;;;;;-2.48;100.00;95277.81;5080185;28;20220;-73
2022/01/16 08:02:03;;;;;;;18.17;11.90;;;;;;;-2.54;100.00;95280.03;5071241;28;20301;-74
2022/01/16 08:04:49;;;;;;;23.07;11.70;;;;;;;-2.39;100.00;95275.63;5089296;28;20730;-74
2022/01/16 08:07:35;;;;;;;15.83;11.50;;;;;;;-2.48;100.00;95277.81;5086575;28;20197;-74
2022/01/16 08:10:21;;;;;;;15.37;11.63;;;;;;;-2.51;100.00;95291.91;5076610;28;20266;-73
2022/01/16 08:13:07;;;;;;;16.10;11.73;;;;;;;-2.36;100.00;95280.25;5070338;28;20591;-74
2022/01/16 08:15:53;;;;;;;13.97;11.33;;;;;;;-2.36;100.00;95279.47;5084642;28;20217;-74
2022/01/16 08:18:39;;;;;;;15.27;11.53;;;;;;;-2.10;100.00;95274.78;5072947;28;20242;-73
2022/01/16 08:21:25;;;;;;;15.23;11.77;;;;;;;-1.78;100.00;95280.47;5053834;28;20200;-75
2022/01/16 08:24:10;;;;;;;14.13;11.40;;;;;;;-1.74;100.00;95273.22;5086955;28;20216;-75
2022/01/16 08:26:56;;;;;;;13.80;10.67;;;;;;;-1.70;100.00;95282.84;5069966;28;20712;-74
2022/01/16 08:29:42;;;;;;;12.83;10.80;;;;;;;-1.62;100.00;95297.03;5091029;28;20278;-73
2022/01/16 08:32:28;;;;;;;13.70;10.93;;;;;;;-1.57;100.00;95275.28;5083381;28;20257;-71
2022/01/16 08:35:14;;;;;;;13.67;10.90;;;;;;;-1.69;100.00;95278.22;5072306;28;20684;-72
2022/01/16 08:38:00;;;;;;;13.90;10.87;;;;;;;-1.50;100.00;95278.78;5055894;28;20250;-73
2022/01/16 08:40:46;;;;;;;14.13;11.50;;;;;;;-1.38;100.00;95275.81;5087360;28;20204;-74
2022/01/16 08:43:32;;;;;;;14.97;11.77;;;;;;;-1.15;100.00;95282.88;5088422;28;20280;-73
2022/01/16 08:46:18;;;;;;;14.77;11.17;;;;;;;-1.14;100.00;95273.69;5074684;28;20294;-74
2022/01/16 08:49:04;;;;;;;16.20;12.67;;;;;;;-1.22;100.00;95273.63;5085821;28;20212;-74
2022/01/16 08:51:50;;;;;;;16.73;12.07;;;;;;;-1.13;100.00;95283.25;5088696;28;20190;-73
2022/01/16 08:54:37;;;;;;;12.87;10.27;;;;;;;-1.11;100.00;95289.78;5086465;28;20684;-75
2022/01/16 08:57:23;;;;;;;12.07;9.53;;;;;;;-0.97;100.00;95283.75;5061898;28;20449;-74
2022/01/16 09:00:10;;;;;;;11.37;9.53;;;;;;;-1.05;100.00;95277.56;5057812;28;20197;-74
2022/01/16 09:02:57;;;;;;;12.27;10.20;;;;;;;-1.04;100.00;95281.78;5085484;28;20197;-73
2022/01/16 09:05:46;;;;;;;13.37;10.27;;;;;;;-0.98;100.00;95271.47;5056899;28;20239;-71
2022/01/16 09:08:32;;;;;;;12.60;9.93;;;;;;;-0.78;100.00;95268.13;5072095;28;20209;-72
2022/01/16 09:11:22;;;;;;;13.10;10.47;;;;;;;-0.87;100.00;95267.72;5084645;28;20189;-72
2022/01/16 09:14:08;;;;;;;13.87;10.73;;;;;;;-0.72;100.00;95274.69;5084070;28;20262;-74
2022/01/16 09:16:54;;;;;;;11.83;9.87;;;;;;;-0.72;100.00;95290.00;5086747;28;20208;-74
2022/01/16 09:19:40;;;;;;;13.27;10.50;;;;;;;-0.63;100.00;95275.09;5084793;28;20652;-74
2022/01/16 09:22:27;;;;;;;11.33;9.60;;;;;;;-0.46;100.00;95287.06;5091529;28;20192;-75
2022/01/16 09:25:14;;;;;;;15.30;11.40;;;;;;;-0.40;100.00;95296.28;5086396;28;20213;-74
2022/01/16 09:28:03;;;;;;;12.43;10.13;;;;;;;-0.35;100.00;95294.03;5081379;28;20200;-73
2022/01/16 09:30:49;;;;;;;10.87;9.30;;;;;;;-0.39;100.00;95300.53;5086683;28;20208;-73
2022/01/16 09:33:35;;;;;;;12.77;10.27;;;;;;;-0.18;100.00;95306.75;5092525;28;20673;-73
2022/01/16 09:36:21;;;;;;;14.27;10.70;;;;;;;-0.01;100.00;95306.03;5092921;28;20236;-74
2022/01/16 09:39:07;;;;;;;12.60;10.57;;;;;;;-0.03;100.00;95302.94;5065909;28;20200;-74
2022/01/16 09:41:54;;;;;;;13.80;10.60;;;;;;;0.08;100.00;95300.28;5089707;28;20767;-73
2022/01/16 09:44:40;;;;;;;13.40;10.40;;;;;;;1.58;100.00;95297.94;5066750;28;20221;-74
2022/01/16 09:47:26;;;;;;;13.63;10.83;;;;;;;2.85;100.00;95298.72;5076566;28;20212;-73
2022/01/16 09:50:15;;;;;;;11.20;9.40;;;;;;;2.14;100.00;95295.75;5076038;28;20196;-75
2022/01/16 09:53:02;;;;;;;13.13;10.20;;;;;;;2.84;100.00;95297.22;5090937;28;20197;-74
2022/01/16 09:55:48;;;;;;;10.80;8.90;;;;;;;3.97;100.00;95293.38;5089979;28;20223;-73
2022/01/16 09:58:34;;;;;;;9.33;8.20;;;;;;;3.60;100.00;95299.56;5091928;28;20650;-74
2022/01/16 10:01:20;;;;;;;8.40;7.33;;;;;;;2.36;100.00;95305.25;5062023;28;20198;-72
2022/01/16 10:04:35;;;;;;;9.33;8.20;;;;;;;3.11;100.00;95305.44;5074114;28;20285;-73
2022/01/16 10:07:21;;;;;;;8.50;7.60;;;;;;;5.01;93.62;95300.34;5090083;28;20200;-74
2022/01/16 10:10:16;;;;;;;8.93;7.57;;;;;;;3.23;96.14;95292.25;5076910;28;20193;-73
2022/01/16 10:13:36;;;;;;;9.90;7.43;;;;;;;3.00;100.00;95294.78;5091073;28;20212;-74
2022/01/16 10:16:42;;;;;;;12.13;8.00;;;;;;;2.32;100.00;95290.28;5077352;28;20212;-73
2022/01/16 10:19:29;;;;;;;9.83;7.77;;;;;;;2.06;100.00;95291.56;5091278;28;20192;-75
2022/01/16 10:22:15;;;;;;;10.50;7.57;;;;;;;2.14;100.00;95306.53;5090416;28;20206;-74
2022/01/16 10:25:02;;;;;;;9.70;7.47;;;;;;;2.09;100.00;95301.53;5089406;28;20271;-74
2022/01/16 10:27:48;;;;;;;9.90;7.23;;;;;;;2.26;99.36;95291.81;5087183;28;20193;-72
2022/01/16 10:30:46;;;;;;;8.03;5.97;;;;;;;2.32;97.57;95287.56;5081249;28;20200;-73
2022/01/16 10:33:33;;;;;;;9.93;6.83;;;;;;;2.35;96.82;95292.16;5079282;28;20197;-74
2022/01/16 10:36:34;;;;;;;8.90;6.37;;;;;;;2.46;93.69;95296.31;5093148;28;20694;-76
2022/01/16 10:39:20;;;;;;;8.67;6.43;;;;;;;2.55;91.89;95287.78;5077276;28;20228;-75
2022/01/16 10:42:15;;;;;;;10.03;6.97;;;;;;;2.56;89.79;95275.09;5081429;28;20193;-73
2022/01/16 10:45:13;;;;;;;10.43;6.43;;;;;;;2.66;87.41;95274.25;5069735;28;20217;-73
2022/01/16 10:48:02;;;;;;;9.90;6.83;;;;;;;2.71;88.02;95285.38;5090537;28;20228;-74
2022/01/16 10:50:49;;;;;;;7.37;5.70;;;;;;;2.83;86.15;95282.19;5090986;28;20197;-74
2022/01/16 10:53:40;;;;;;;9.70;6.93;;;;;;;2.81;87.18;95283.75;5089899;28;20254;-74
2022/01/16 10:56:27;;;;;;;9.73;6.43;;;;;;;2.87;86.20;95292.97;5092853;28;20213;-74
2022/01/16 10:59:23;;;;;;;8.67;6.20;;;;;;;3.01;85.77;95285.50;5074721;28;20197;-75
2022/01/16 11:02:09;;;;;;;8.30;6.20;;;;;;;3.06;85.84;95279.69;5094544;28;20197;-74
2022/01/16 11:05:11;;;;;;;10.33;6.93;;;;;;;3.15;86.16;95281.91;5074317;28;20691;-74
2022/01/16 11:08:00;;;;;;;7.20;5.57;;;;;;;3.25;84.25;95298.00;5082995;28;20197;-73
2022/01/16 11:10:47;;;;;;;9.27;6.20;;;;;;;3.29;83.78;95290.63;5075078;28;20205;-75
2022/01/16 11:13:35;;;;;;;8.37;6.00;;;;;;;3.29;84.72;95292.56;5092499;28;20216;-73
2022/01/16 11:16:23;;;;;;;9.43;6.70;;;;;;;3.37;84.38;95278.63;5085767;28;20212;-74
2022/01/16 11:19:09;;;;;;;10.63;6.50;;;;;;;3.43;83.53;95295.13;5082093;28;20951;-74
2022/01/16 11:22:03;;;;;;;8.40;6.30;;;;;;;3.48;84.28;95287.34;5075522;28;20203;-74
2022/01/16 11:25:01;;;;;;;7.37;5.50;;;;;;;3.42;83.52;95282.78;5073351;28;20283;-74
2022/01/16 11:27:47;;;;;;;7.87;6.10;;;;;;;3.58;83.60;95302.66;5089972;28;20632;-73
2022/01/16 11:30:36;;;;;;;9.80;6.97;;;;;;;3.63;83.15;95306.88;5088172;28;20198;-74
2022/01/16 11:33:24;;;;;;;8.93;6.67;;;;;;;3.68;84.04;95309.16;5088339;28;20201;-73
2022/01/16 11:36:15;;;;;;;7.30;6.30;;;;;;;3.73;84.29;95301.34;5075090;28;20208;-73
2022/01/16 11:39:06;;;;;;;8.47;6.27;;;;;;;3.90;84.06;95309.66;5090698;28;20209;-72
2022/01/16 11:41:56;;;;;;;8.27;6.37;;;;;;;3.85;84.88;95318.22;5087167;28;20208;-73
2022/01/16 11:44:53;;;;;;;8.80;6.47;;;;;;;3.68;86.32;95312.59;5073712;28;20204;-75
2022/01/16 11:47:58;;;;;;;9.17;6.40;;;;;;;3.78;86.25;95313.66;5088797;28;20666;-75
2022/01/16 11:50:45;;;;;;;9.53;7.13;;;;;;;3.82;86.78;95317.06;5089543;28;20204;-74
2022/01/16 11:54:09;;;;;;;7.57;6.50;;;;;;;3.89;86.49;95325.09;5082763;28;20205;-76
2022/01/16 11:57:07;;;;;;;7.50;6.03;;;;;;;3.89;87.36;95335.91;5069230;28;20221;-73
2022/01/16 12:00:15;;;;;;;6.83;5.90;;;;;;;3.95;86.84;95330.84;5078681;28;20205;-72
2022/01/16 12:03:01;;;;;;;8.07;6.03;;;;;;;4.18;86.46;95334.41;5070105;28;20197;-75
2022/01/16 12:05:47;;;;;;;10.23;6.53;;;;;;;4.22;85.52;95340.53;5088192;28;20221;-73
2022/01/16 12:08:34;;;;;;;9.90;6.60;;;;;;;4.23;84.98;95341.28;5086103;28;20204;-75
2022/01/16 12:11:36;;;;;;;10.10;6.80;;;;;;;4.20;83.64;95334.75;5085084;28;20201;-74
2022/01/16 12:14:47;;;;;;;10.10;6.73;;;;;;;4.29;83.46;95342.38;5074513;28;20192;-73
2022/01/16 12:17:41;;;;;;;9.43;6.63;;;;;;;4.35;83.96;95338.81;5071396;28;20242;-73
2022/01/16 12:20:30;;;;;;;10.70;6.77;;;;;;;4.27;84.13;95350.13;5092943;28;20204;-74
2022/01/16 12:23:28;;;;;;;9.07;6.77;;;;;;;4.27;84.34;95353.59;5070476;28;20258;-73
2022/01/16 12:26:35;;;;;;;8.73;6.67;;;;;;;4.28;84.15;95346.25;5084518;28;20300;-74
2022/01/16 12:29:21;;;;;;;8.57;6.40;;;;;;;4.35;83.49;95348.84;5081462;28;20208;-73
2022/01/16 12:32:45;;;;;;;9.07;7.10;;;;;;;4.45;82.95;95346.03;5064445;28;20686;-74
2022/01/16 12:35:46;;;;;;;8.97;6.90;;;;;;;4.43;84.13;95345.66;5087067;28;20568;-75
2022/01/16 12:38:34;;;;;;;9.90;7.47;;;;;;;4.38;83.26;95348.03;5067887;28;20212;-75
2022/01/16 12:41:33;;;;;;;8.87;6.70;;;;;;;4.48;83.40;95350.59;5071105;28;20204;-75
2022/01/16 12:44:19;;;;;;;8.53;6.30;;;;;;;4.42;83.19;95340.66;5075194;28;20188;-74
2022/01/16 12:47:05;;;;;;;11.00;7.37;;;;;;;4.45;83.39;95359.53;5087129;28;20193;-75
2022/01/16 12:49:52;;;;;;;9.23;6.70;;;;;;;4.55;81.37;95358.63;5072157;28;20197;-72
2022/01/16 12:52:46;;;;;;;8.73;6.60;;;;;;;4.69;81.95;95350.34;5068478;28;20586;-74
2022/01/16 12:55:33;;;;;;;9.00;6.50;;;;;;;4.89;80.27;95356.59;5067356;28;20213;-74
2022/01/16 12:58:21;;;;;;;9.60;6.30;;;;;;;4.84;79.94;95359.00;5084018;28;20192;-73
2022/01/16 13:01:07;;;;;;;8.60;6.80;;;;;;;4.76;78.68;95366.47;5089224;28;20197;-72
2022/01/16 13:03:54;;;;;;;8.70;7.17;;;;;;;4.69;79.60;95363.09;5089013;28;20289;-74
2022/01/16 13:06:40;;;;;;;10.17;6.60;;;;;;;4.61;79.34;95356.25;5082387;28;20221;-73
2022/01/16 13:09:28;;;;;;;9.27;6.57;;;;;;;4.62;78.00;95355.84;5085257;28;20673;-75
2022/01/16 13:12:14;;;;;;;9.17;6.90;;;;;;;4.71;77.84;95349.91;5085503;28;20189;-74
2022/01/16 13:15:00;;;;;;;9.33;7.03;;;;;;;4.77;76.72;95349.06;5082591;28;20682;-74
2022/01/16 13:17:46;;;;;;;8.60;6.80;;;;;;;4.73;74.58;95359.16;5073565;28;20206;-75
2022/01/16 13:20:32;;;;;;;8.10;7.10;;;;;;;4.60;77.24;95352.75;5061947;28;20204;-73
2022/01/16 13:23:18;;;;;;;8.47;6.40;;;;;;;4.58;76.86;95360.53;5088735;28;20196;-74
2022/01/16 13:26:04;;;;;;;10.23;6.97;;;;;;;4.58;75.39;95357.81;5086857;28;20282;-75
2022/01/16 13:29:02;;;;;;;11.00;7.50;;;;;;;4.47;77.28;95359.13;5088043;28;20197;-75
2022/01/16 13:31:49;;;;;;;10.70;7.50;;;;;;;4.44;75.57;95349.91;5070210;28;20192;-72
2022/01/16 13:34:38;;;;;;;8.73;7.07;;;;;;;4.51;76.45;95349.78;5086116;28;20196;-74